sensor_id;sensor_type;location;lat;lon;timestamp;pressure;altitude;pressure_sealevel;temperature
56286;BMP180;42191;47.562;9.686;2022-07-06T00:02:22;97445.00;;;22.80
56286;BMP180;42191;47.562;9.686;2022-07-06T00:04:48;97434.00;;;22.80
56286;BMP180;42191;47.562;9.686;2022-07-06T00:07:14;97441.00;;;22.70
56286;BMP180;42191;47.562;9.686;2022-07-06T00:09:41;97442.00;;;22.70
56286;BMP180;42191;47.562;9.686;2022-07-06T00:12:08;97430.00;;;22.60
56286;BMP180;42191;47.562;9.686;2022-07-06T00:14:35;97431.00;;;22.60
56286;BMP180;42191;47.562;9.686;2022-07-06T00:17:01;97438.00;;;22.50
56286;BMP180;42191;47.562;9.686;2022-07-06T00:19:27;97440.00;;;22.50
56286;BMP180;42191;47.562;9.686;2022-07-06T00:21:53;97428.00;;;22.50
56286;BMP180;42191;47.562;9.686;2022-07-06T00:24:19;97435.00;;;22.40
56286;BMP180;42191;47.562;9.686;2022-07-06T00:26:46;97436.00;;;22.30
56286;BMP180;42191;47.562;9.686;2022-07-06T00:29:12;97436.00;;;22.30
56286;BMP180;42191;47.562;9.686;2022-07-06T00:31:38;97436.00;;;22.20
56286;BMP180;42191;47.562;9.686;2022-07-06T00:34:04;97434.00;;;22.10
56286;BMP180;42191;47.562;9.686;2022-07-06T00:36:31;97436.00;;;22.10
56286;BMP180;42191;47.562;9.686;2022-07-06T00:38:57;97431.00;;;22.00
56286;BMP180;42191;47.562;9.686;2022-07-06T00:41:23;97439.00;;;22.00
56286;BMP180;42191;47.562;9.686;2022-07-06T00:43:54;97435.00;;;21.90
56286;BMP180;42191;47.562;9.686;2022-07-06T00:46:26;97433.00;;;21.90
56286;BMP180;42191;47.562;9.686;2022-07-06T00:48:53;97427.00;;;21.80
56286;BMP180;42191;47.562;9.686;2022-07-06T00:51:21;97431.00;;;21.80
56286;BMP180;42191;47.562;9.686;2022-07-06T00:53:49;97439.00;;;21.70
56286;BMP180;42191;47.562;9.686;2022-07-06T00:56:15;97426.00;;;21.70
56286;BMP180;42191;47.562;9.686;2022-07-06T00:58:41;97414.00;;;21.60
56286;BMP180;42191;47.562;9.686;2022-07-06T01:01:07;97410.00;;;21.60
56286;BMP180;42191;47.562;9.686;2022-07-06T01:03:33;97410.00;;;21.50
56286;BMP180;42191;47.562;9.686;2022-07-06T01:06:00;97409.00;;;21.50
56286;BMP180;42191;47.562;9.686;2022-07-06T01:08:26;97406.00;;;21.40
56286;BMP180;42191;47.562;9.686;2022-07-06T01:10:52;97399.00;;;21.40
56286;BMP180;42191;47.562;9.686;2022-07-06T01:13:18;97400.00;;;21.30
56286;BMP180;42191;47.562;9.686;2022-07-06T01:15:44;97394.00;;;21.30
56286;BMP180;42191;47.562;9.686;2022-07-06T01:18:11;97395.00;;;21.20
56286;BMP180;42191;47.562;9.686;2022-07-06T01:20:38;97386.00;;;21.20
56286;BMP180;42191;47.562;9.686;2022-07-06T01:23:04;97393.00;;;21.10
56286;BMP180;42191;47.562;9.686;2022-07-06T01:25:30;97395.00;;;21.10
56286;BMP180;42191;47.562;9.686;2022-07-06T01:27:57;97389.00;;;21.00
56286;BMP180;42191;47.562;9.686;2022-07-06T01:30:23;97394.00;;;21.00
56286;BMP180;42191;47.562;9.686;2022-07-06T01:32:50;97392.00;;;20.90
56286;BMP180;42191;47.562;9.686;2022-07-06T01:35:16;97383.00;;;20.90
56286;BMP180;42191;47.562;9.686;2022-07-06T01:37:43;97388.00;;;20.90
56286;BMP180;42191;47.562;9.686;2022-07-06T01:40:11;97391.00;;;20.80
56286;BMP180;42191;47.562;9.686;2022-07-06T01:42:37;97386.00;;;20.80
56286;BMP180;42191;47.562;9.686;2022-07-06T01:45:04;97388.00;;;20.80
56286;BMP180;42191;47.562;9.686;2022-07-06T01:47:31;97388.00;;;20.80
56286;BMP180;42191;47.562;9.686;2022-07-06T01:49:59;97388.00;;;20.70
56286;BMP180;42191;47.562;9.686;2022-07-06T01:52:26;97388.00;;;20.70
56286;BMP180;42191;47.562;9.686;2022-07-06T01:54:52;97386.00;;;20.60
56286;BMP180;42191;47.562;9.686;2022-07-06T01:57:18;97383.00;;;20.60
56286;BMP180;42191;47.562;9.686;2022-07-06T01:59:44;97382.00;;;20.50
56286;BMP180;42191;47.562;9.686;2022-07-06T02:02:10;97386.00;;;20.50
56286;BMP180;42191;47.562;9.686;2022-07-06T02:04:37;97377.00;;;20.50
56286;BMP180;42191;47.562;9.686;2022-07-06T02:07:03;97387.00;;;20.40
56286;BMP180;42191;47.562;9.686;2022-07-06T02:09:29;97379.00;;;20.40
56286;BMP180;42191;47.562;9.686;2022-07-06T02:11:55;97385.00;;;20.30
56286;BMP180;42191;47.562;9.686;2022-07-06T02:14:21;97382.00;;;20.30
56286;BMP180;42191;47.562;9.686;2022-07-06T02:16:47;97380.00;;;20.30
56286;BMP180;42191;47.562;9.686;2022-07-06T02:19:13;97382.00;;;20.20
56286;BMP180;42191;47.562;9.686;2022-07-06T02:21:39;97381.00;;;20.20
56286;BMP180;42191;47.562;9.686;2022-07-06T02:24:06;97386.00;;;20.20
56286;BMP180;42191;47.562;9.686;2022-07-06T02:26:32;97387.00;;;20.10
56286;BMP180;42191;47.562;9.686;2022-07-06T02:28:58;97388.00;;;20.10
56286;BMP180;42191;47.562;9.686;2022-07-06T02:31:24;97383.00;;;20.10
56286;BMP180;42191;47.562;9.686;2022-07-06T02:33:50;97386.00;;;20.00
56286;BMP180;42191;47.562;9.686;2022-07-06T02:36:16;97387.00;;;20.00
56286;BMP180;42191;47.562;9.686;2022-07-06T02:38:42;97392.00;;;20.00
56286;BMP180;42191;47.562;9.686;2022-07-06T02:41:08;97393.00;;;19.90
56286;BMP180;42191;47.562;9.686;2022-07-06T02:43:36;97401.00;;;19.90
56286;BMP180;42191;47.562;9.686;2022-07-06T02:46:02;97403.00;;;19.80
56286;BMP180;42191;47.562;9.686;2022-07-06T02:48:28;97402.00;;;19.80
56286;BMP180;42191;47.562;9.686;2022-07-06T02:50:54;97395.00;;;19.80
56286;BMP180;42191;47.562;9.686;2022-07-06T02:53:20;97408.00;;;19.70
56286;BMP180;42191;47.562;9.686;2022-07-06T02:55:46;97409.00;;;19.70
56286;BMP180;42191;47.562;9.686;2022-07-06T02:58:13;97413.00;;;19.70
56286;BMP180;42191;47.562;9.686;2022-07-06T03:00:39;97417.00;;;19.60
56286;BMP180;42191;47.562;9.686;2022-07-06T03:03:05;97422.00;;;19.60
56286;BMP180;42191;47.562;9.686;2022-07-06T03:05:31;97426.00;;;19.60
56286;BMP180;42191;47.562;9.686;2022-07-06T03:07:57;97426.00;;;19.50
56286;BMP180;42191;47.562;9.686;2022-07-06T03:10:23;97434.00;;;19.50
56286;BMP180;42191;47.562;9.686;2022-07-06T03:12:49;97435.00;;;19.50
56286;BMP180;42191;47.562;9.686;2022-07-06T03:15:15;97428.00;;;19.50
56286;BMP180;42191;47.562;9.686;2022-07-06T03:17:41;97433.00;;;19.40
56286;BMP180;42191;47.562;9.686;2022-07-06T03:20:07;97442.00;;;19.40
56286;BMP180;42191;47.562;9.686;2022-07-06T03:22:34;97439.00;;;19.40
56286;BMP180;42191;47.562;9.686;2022-07-06T03:25:00;97438.00;;;19.30
56286;BMP180;42191;47.562;9.686;2022-07-06T03:27:26;97437.00;;;19.30
56286;BMP180;42191;47.562;9.686;2022-07-06T03:29:52;97436.00;;;19.30
56286;BMP180;42191;47.562;9.686;2022-07-06T03:32:18;97438.00;;;19.30
56286;BMP180;42191;47.562;9.686;2022-07-06T03:37:28;97433.00;;;19.20
56286;BMP180;42191;47.562;9.686;2022-07-06T03:39:54;97437.00;;;19.20
56286;BMP180;42191;47.562;9.686;2022-07-06T03:42:20;97437.00;;;19.20
56286;BMP180;42191;47.562;9.686;2022-07-06T03:44:46;97440.00;;;19.20
56286;BMP180;42191;47.562;9.686;2022-07-06T03:47:12;97445.00;;;19.10
56286;BMP180;42191;47.562;9.686;2022-07-06T03:49:38;97442.00;;;19.10
56286;BMP180;42191;47.562;9.686;2022-07-06T03:52:04;97448.00;;;19.10
56286;BMP180;42191;47.562;9.686;2022-07-06T03:54:31;97437.00;;;19.10
56286;BMP180;42191;47.562;9.686;2022-07-06T03:56:57;97424.00;;;19.10
56286;BMP180;42191;47.562;9.686;2022-07-06T03:59:23;97436.00;;;19.10
56286;BMP180;42191;47.562;9.686;2022-07-06T04:01:49;97431.00;;;19.10
56286;BMP180;42191;47.562;9.686;2022-07-06T04:04:15;97431.00;;;19.10
56286;BMP180;42191;47.562;9.686;2022-07-06T04:06:41;97434.00;;;19.10
56286;BMP180;42191;47.562;9.686;2022-07-06T04:09:07;97434.00;;;19.10
56286;BMP180;42191;47.562;9.686;2022-07-06T04:11:35;97428.00;;;19.10
56286;BMP180;42191;47.562;9.686;2022-07-06T04:14:01;97435.00;;;19.10
56286;BMP180;42191;47.562;9.686;2022-07-06T04:16:27;97425.00;;;19.10
56286;BMP180;42191;47.562;9.686;2022-07-06T04:18:53;97425.00;;;19.20
56286;BMP180;42191;47.562;9.686;2022-07-06T04:21:19;97426.00;;;19.20
56286;BMP180;42191;47.562;9.686;2022-07-06T04:23:45;97424.00;;;19.20
56286;BMP180;42191;47.562;9.686;2022-07-06T04:26:11;97421.00;;;19.30
56286;BMP180;42191;47.562;9.686;2022-07-06T04:28:38;97424.00;;;19.30
56286;BMP180;42191;47.562;9.686;2022-07-06T04:31:04;97437.00;;;19.40
56286;BMP180;42191;47.562;9.686;2022-07-06T04:33:30;97438.00;;;19.40
56286;BMP180;42191;47.562;9.686;2022-07-06T04:35:56;97438.00;;;19.40
56286;BMP180;42191;47.562;9.686;2022-07-06T04:38:22;97437.00;;;19.50
56286;BMP180;42191;47.562;9.686;2022-07-06T04:40:48;97441.00;;;19.50
56286;BMP180;42191;47.562;9.686;2022-07-06T04:43:14;97453.00;;;19.60
56286;BMP180;42191;47.562;9.686;2022-07-06T04:45:40;97444.00;;;19.60
56286;BMP180;42191;47.562;9.686;2022-07-06T04:48:06;97445.00;;;19.70
56286;BMP180;42191;47.562;9.686;2022-07-06T04:50:34;97442.00;;;19.80
56286;BMP180;42191;47.562;9.686;2022-07-06T04:53:00;97444.00;;;19.80
56286;BMP180;42191;47.562;9.686;2022-07-06T04:55:26;97448.00;;;19.90
56286;BMP180;42191;47.562;9.686;2022-07-06T04:57:52;97444.00;;;19.90
56286;BMP180;42191;47.562;9.686;2022-07-06T05:00:18;97447.00;;;20.00
56286;BMP180;42191;47.562;9.686;2022-07-06T05:02:44;97440.00;;;20.10
56286;BMP180;42191;47.562;9.686;2022-07-06T05:05:11;97444.00;;;20.10
56286;BMP180;42191;47.562;9.686;2022-07-06T05:07:37;97442.00;;;20.20
56286;BMP180;42191;47.562;9.686;2022-07-06T05:10:07;97448.00;;;20.30
56286;BMP180;42191;47.562;9.686;2022-07-06T05:12:33;97448.00;;;20.30
56286;BMP180;42191;47.562;9.686;2022-07-06T05:15:00;97451.00;;;20.40
56286;BMP180;42191;47.562;9.686;2022-07-06T05:17:26;97454.00;;;20.50
56286;BMP180;42191;47.562;9.686;2022-07-06T05:19:52;97475.00;;;20.50
56286;BMP180;42191;47.562;9.686;2022-07-06T05:22:18;97468.00;;;20.60
56286;BMP180;42191;47.562;9.686;2022-07-06T05:24:44;97461.00;;;20.60
56286;BMP180;42191;47.562;9.686;2022-07-06T05:27:10;97469.00;;;20.70
56286;BMP180;42191;47.562;9.686;2022-07-06T05:29:37;97466.00;;;20.80
56286;BMP180;42191;47.562;9.686;2022-07-06T05:32:03;97466.00;;;20.80
56286;BMP180;42191;47.562;9.686;2022-07-06T05:34:29;97465.00;;;20.90
56286;BMP180;42191;47.562;9.686;2022-07-06T05:36:55;97477.00;;;21.00
56286;BMP180;42191;47.562;9.686;2022-07-06T05:39:22;97473.00;;;21.10
56286;BMP180;42191;47.562;9.686;2022-07-06T05:41:49;97469.00;;;21.10
56286;BMP180;42191;47.562;9.686;2022-07-06T05:44:15;97475.00;;;21.20
56286;BMP180;42191;47.562;9.686;2022-07-06T05:46:41;97470.00;;;21.30
56286;BMP180;42191;47.562;9.686;2022-07-06T05:49:07;97473.00;;;21.40
56286;BMP180;42191;47.562;9.686;2022-07-06T05:51:52;97476.00;;;21.50
56286;BMP180;42191;47.562;9.686;2022-07-06T05:54:18;97485.00;;;21.60
56286;BMP180;42191;47.562;9.686;2022-07-06T05:56:45;97479.00;;;21.60
56286;BMP180;42191;47.562;9.686;2022-07-06T05:59:11;97483.00;;;21.70
56286;BMP180;42191;47.562;9.686;2022-07-06T06:01:37;97480.00;;;21.80
56286;BMP180;42191;47.562;9.686;2022-07-06T06:04:03;97481.00;;;21.90
56286;BMP180;42191;47.562;9.686;2022-07-06T06:06:29;97481.00;;;21.90
56286;BMP180;42191;47.562;9.686;2022-07-06T06:08:57;97475.00;;;22.00
56286;BMP180;42191;47.562;9.686;2022-07-06T06:11:23;97480.00;;;22.00
56286;BMP180;42191;47.562;9.686;2022-07-06T06:13:49;97488.00;;;22.10
56286;BMP180;42191;47.562;9.686;2022-07-06T06:16:15;97481.00;;;22.10
56286;BMP180;42191;47.562;9.686;2022-07-06T06:18:41;97488.00;;;22.20
56286;BMP180;42191;47.562;9.686;2022-07-06T06:21:08;97490.00;;;22.30
56286;BMP180;42191;47.562;9.686;2022-07-06T06:23:34;97479.00;;;22.30
56286;BMP180;42191;47.562;9.686;2022-07-06T06:26:00;97482.00;;;22.40
56286;BMP180;42191;47.562;9.686;2022-07-06T06:28:26;97490.00;;;22.50
56286;BMP180;42191;47.562;9.686;2022-07-06T06:30:52;97484.00;;;22.50
56286;BMP180;42191;47.562;9.686;2022-07-06T06:33:19;97484.00;;;22.60
56286;BMP180;42191;47.562;9.686;2022-07-06T06:35:52;97481.00;;;22.60
56286;BMP180;42191;47.562;9.686;2022-07-06T06:38:21;97472.00;;;22.70
56286;BMP180;42191;47.562;9.686;2022-07-06T06:40:48;97467.00;;;22.70
56286;BMP180;42191;47.562;9.686;2022-07-06T06:43:14;97470.00;;;22.80
56286;BMP180;42191;47.562;9.686;2022-07-06T06:45:40;97469.00;;;22.80
56286;BMP180;42191;47.562;9.686;2022-07-06T06:48:06;97469.00;;;22.80
56286;BMP180;42191;47.562;9.686;2022-07-06T06:50:32;97476.00;;;22.90
56286;BMP180;42191;47.562;9.686;2022-07-06T06:52:59;97470.00;;;22.90
56286;BMP180;42191;47.562;9.686;2022-07-06T06:55:25;97469.00;;;22.90
56286;BMP180;42191;47.562;9.686;2022-07-06T06:57:51;97475.00;;;22.90
56286;BMP180;42191;47.562;9.686;2022-07-06T07:00:17;97476.00;;;23.00
56286;BMP180;42191;47.562;9.686;2022-07-06T07:02:45;97476.00;;;23.00
56286;BMP180;42191;47.562;9.686;2022-07-06T07:05:11;97480.00;;;23.00
56286;BMP180;42191;47.562;9.686;2022-07-06T07:07:37;97478.00;;;23.10
56286;BMP180;42191;47.562;9.686;2022-07-06T07:10:04;97475.00;;;23.20
56286;BMP180;42191;47.562;9.686;2022-07-06T07:12:31;97480.00;;;23.20
56286;BMP180;42191;47.562;9.686;2022-07-06T07:14:59;97473.00;;;23.30
56286;BMP180;42191;47.562;9.686;2022-07-06T07:17:25;97472.00;;;23.40
56286;BMP180;42191;47.562;9.686;2022-07-06T07:19:51;97479.00;;;23.50
56286;BMP180;42191;47.562;9.686;2022-07-06T07:22:17;97477.00;;;23.60
56286;BMP180;42191;47.562;9.686;2022-07-06T07:24:43;97483.00;;;23.70
56286;BMP180;42191;47.562;9.686;2022-07-06T07:27:09;97475.00;;;23.80
56286;BMP180;42191;47.562;9.686;2022-07-06T07:29:35;97478.00;;;23.90
56286;BMP180;42191;47.562;9.686;2022-07-06T07:32:02;97470.00;;;24.00
56286;BMP180;42191;47.562;9.686;2022-07-06T07:34:28;97472.00;;;24.10
56286;BMP180;42191;47.562;9.686;2022-07-06T07:36:54;97472.00;;;24.20
56286;BMP180;42191;47.562;9.686;2022-07-06T07:39:20;97464.00;;;24.40
56286;BMP180;42191;47.562;9.686;2022-07-06T07:41:46;97471.00;;;24.50
56286;BMP180;42191;47.562;9.686;2022-07-06T07:44:12;97478.00;;;24.70
56286;BMP180;42191;47.562;9.686;2022-07-06T07:46:38;97474.00;;;24.80
56286;BMP180;42191;47.562;9.686;2022-07-06T07:49:04;97465.00;;;24.90
56286;BMP180;42191;47.562;9.686;2022-07-06T07:51:30;97466.00;;;24.90
56286;BMP180;42191;47.562;9.686;2022-07-06T07:53:56;97462.00;;;25.00
56286;BMP180;42191;47.562;9.686;2022-07-06T07:56:22;97461.00;;;24.90
56286;BMP180;42191;47.562;9.686;2022-07-06T07:58:51;97472.00;;;24.90
56286;BMP180;42191;47.562;9.686;2022-07-06T08:04:38;97468.00;;;24.80
56286;BMP180;42191;47.562;9.686;2022-07-06T08:07:04;97471.00;;;24.80
56286;BMP180;42191;47.562;9.686;2022-07-06T08:09:31;97461.00;;;24.80
56286;BMP180;42191;47.562;9.686;2022-07-06T08:11:57;97471.00;;;24.80
56286;BMP180;42191;47.562;9.686;2022-07-06T08:14:30;97467.00;;;24.80
56286;BMP180;42191;47.562;9.686;2022-07-06T08:17:19;97460.00;;;24.90
56286;BMP180;42191;47.562;9.686;2022-07-06T08:19:45;97466.00;;;24.90
56286;BMP180;42191;47.562;9.686;2022-07-06T08:22:19;97461.00;;;24.90
56286;BMP180;42191;47.562;9.686;2022-07-06T08:24:46;97463.00;;;25.00
56286;BMP180;42191;47.562;9.686;2022-07-06T08:27:12;97467.00;;;25.00
56286;BMP180;42191;47.562;9.686;2022-07-06T08:29:39;97466.00;;;25.10
56286;BMP180;42191;47.562;9.686;2022-07-06T08:32:05;97458.00;;;25.10
56286;BMP180;42191;47.562;9.686;2022-07-06T08:34:31;97466.00;;;25.10
56286;BMP180;42191;47.562;9.686;2022-07-06T08:36:58;97463.00;;;25.20
56286;BMP180;42191;47.562;9.686;2022-07-06T08:39:24;97472.00;;;25.30
56286;BMP180;42191;47.562;9.686;2022-07-06T08:41:51;97467.00;;;25.30
56286;BMP180;42191;47.562;9.686;2022-07-06T08:44:18;97463.00;;;25.30
56286;BMP180;42191;47.562;9.686;2022-07-06T08:46:45;97469.00;;;25.30
56286;BMP180;42191;47.562;9.686;2022-07-06T08:49:16;97473.00;;;25.30
56286;BMP180;42191;47.562;9.686;2022-07-06T08:51:42;97480.00;;;25.40
56286;BMP180;42191;47.562;9.686;2022-07-06T08:54:09;97482.00;;;25.40
56286;BMP180;42191;47.562;9.686;2022-07-06T08:56:37;97476.00;;;25.40
56286;BMP180;42191;47.562;9.686;2022-07-06T08:59:03;97480.00;;;25.50
56286;BMP180;42191;47.562;9.686;2022-07-06T09:01:30;97481.00;;;25.50
56286;BMP180;42191;47.562;9.686;2022-07-06T09:03:56;97481.00;;;25.60
56286;BMP180;42191;47.562;9.686;2022-07-06T09:06:26;97487.00;;;25.60
56286;BMP180;42191;47.562;9.686;2022-07-06T09:08:54;97482.00;;;25.70
56286;BMP180;42191;47.562;9.686;2022-07-06T09:11:24;97480.00;;;25.70
56286;BMP180;42191;47.562;9.686;2022-07-06T09:13:53;97488.00;;;25.70
56286;BMP180;42191;47.562;9.686;2022-07-06T09:16:34;97479.00;;;25.70
56286;BMP180;42191;47.562;9.686;2022-07-06T09:19:40;97490.00;;;25.80
56286;BMP180;42191;47.562;9.686;2022-07-06T09:22:28;97490.00;;;25.80
56286;BMP180;42191;47.562;9.686;2022-07-06T09:25:19;97493.00;;;25.80
56286;BMP180;42191;47.562;9.686;2022-07-06T09:28:23;97484.00;;;25.80
56286;BMP180;42191;47.562;9.686;2022-07-06T09:30:49;97491.00;;;25.90
56286;BMP180;42191;47.562;9.686;2022-07-06T09:33:18;97487.00;;;25.90
56286;BMP180;42191;47.562;9.686;2022-07-06T09:35:44;97496.00;;;25.90
56286;BMP180;42191;47.562;9.686;2022-07-06T09:38:13;97488.00;;;25.90
56286;BMP180;42191;47.562;9.686;2022-07-06T09:40:41;97489.00;;;26.00
56286;BMP180;42191;47.562;9.686;2022-07-06T09:43:16;97488.00;;;26.00
56286;BMP180;42191;47.562;9.686;2022-07-06T09:45:53;97487.00;;;26.10
56286;BMP180;42191;47.562;9.686;2022-07-06T09:48:24;97494.00;;;26.10
56286;BMP180;42191;47.562;9.686;2022-07-06T09:50:55;97491.00;;;26.10
56286;BMP180;42191;47.562;9.686;2022-07-06T09:53:26;97490.00;;;26.10
56286;BMP180;42191;47.562;9.686;2022-07-06T09:55:54;97495.00;;;26.20
56286;BMP180;42191;47.562;9.686;2022-07-06T09:58:21;97492.00;;;26.20
56286;BMP180;42191;47.562;9.686;2022-07-06T10:00:48;97488.00;;;26.20
56286;BMP180;42191;47.562;9.686;2022-07-06T10:03:15;97492.00;;;26.30
56286;BMP180;42191;47.562;9.686;2022-07-06T10:05:44;97494.00;;;26.30
56286;BMP180;42191;47.562;9.686;2022-07-06T10:08:13;97500.00;;;26.40
56286;BMP180;42191;47.562;9.686;2022-07-06T10:10:41;97492.00;;;26.40
56286;BMP180;42191;47.562;9.686;2022-07-06T10:13:12;97494.00;;;26.40
56286;BMP180;42191;47.562;9.686;2022-07-06T10:15:42;97489.00;;;26.40
56286;BMP180;42191;47.562;9.686;2022-07-06T10:18:10;97490.00;;;26.50
56286;BMP180;42191;47.562;9.686;2022-07-06T10:20:38;97486.00;;;26.50
56286;BMP180;42191;47.562;9.686;2022-07-06T10:23:06;97491.00;;;26.50
56286;BMP180;42191;47.562;9.686;2022-07-06T10:25:33;97493.00;;;26.60
56286;BMP180;42191;47.562;9.686;2022-07-06T10:28:00;97487.00;;;26.60
56286;BMP180;42191;47.562;9.686;2022-07-06T10:30:28;97493.00;;;26.60
56286;BMP180;42191;47.562;9.686;2022-07-06T10:32:57;97489.00;;;26.60
56286;BMP180;42191;47.562;9.686;2022-07-06T10:35:25;97477.00;;;26.70
56286;BMP180;42191;47.562;9.686;2022-07-06T10:38:08;97483.00;;;26.70
56286;BMP180;42191;47.562;9.686;2022-07-06T10:40:39;97476.00;;;26.70
56286;BMP180;42191;47.562;9.686;2022-07-06T10:43:44;97478.00;;;26.80
56286;BMP180;42191;47.562;9.686;2022-07-06T10:46:18;97478.00;;;26.80
56286;BMP180;42191;47.562;9.686;2022-07-06T10:49:27;97477.00;;;26.90
56286;BMP180;42191;47.562;9.686;2022-07-06T10:52:18;97476.00;;;26.90
56286;BMP180;42191;47.562;9.686;2022-07-06T10:54:44;97474.00;;;26.90
56286;BMP180;42191;47.562;9.686;2022-07-06T10:57:13;97476.00;;;26.90
56286;BMP180;42191;47.562;9.686;2022-07-06T10:59:41;97477.00;;;27.00
56286;BMP180;42191;47.562;9.686;2022-07-06T11:04:40;97465.00;;;27.00
56286;BMP180;42191;47.562;9.686;2022-07-06T11:07:14;97463.00;;;27.10
56286;BMP180;42191;47.562;9.686;2022-07-06T11:09:42;97455.00;;;27.10
56286;BMP180;42191;47.562;9.686;2022-07-06T11:12:19;97457.00;;;27.10
56286;BMP180;42191;47.562;9.686;2022-07-06T11:14:48;97458.00;;;27.10
56286;BMP180;42191;47.562;9.686;2022-07-06T11:17:15;97459.00;;;27.10
56286;BMP180;42191;47.562;9.686;2022-07-06T11:19:56;97458.00;;;27.10
56286;BMP180;42191;47.562;9.686;2022-07-06T11:22:22;97457.00;;;27.10
56286;BMP180;42191;47.562;9.686;2022-07-06T11:24:50;97451.00;;;27.20
56286;BMP180;42191;47.562;9.686;2022-07-06T11:27:23;97450.00;;;27.30
56286;BMP180;42191;47.562;9.686;2022-07-06T11:29:49;97445.00;;;27.30
56286;BMP180;42191;47.562;9.686;2022-07-06T11:32:15;97445.00;;;27.30
56286;BMP180;42191;47.562;9.686;2022-07-06T11:34:48;97444.00;;;27.40
56286;BMP180;42191;47.562;9.686;2022-07-06T11:37:15;97437.00;;;27.40
56286;BMP180;42191;47.562;9.686;2022-07-06T11:39:44;97441.00;;;27.40
56286;BMP180;42191;47.562;9.686;2022-07-06T11:42:13;97432.00;;;27.40
56286;BMP180;42191;47.562;9.686;2022-07-06T11:44:40;97430.00;;;27.50
56286;BMP180;42191;47.562;9.686;2022-07-06T11:47:09;97429.00;;;27.50
56286;BMP180;42191;47.562;9.686;2022-07-06T11:49:39;97436.00;;;27.60
56286;BMP180;42191;47.562;9.686;2022-07-06T11:52:09;97431.00;;;27.60
56286;BMP180;42191;47.562;9.686;2022-07-06T11:54:36;97431.00;;;27.60
56286;BMP180;42191;47.562;9.686;2022-07-06T11:57:03;97429.00;;;27.60
56286;BMP180;42191;47.562;9.686;2022-07-06T11:59:34;97431.00;;;27.60
56286;BMP180;42191;47.562;9.686;2022-07-06T12:02:01;97433.00;;;27.60
56286;BMP180;42191;47.562;9.686;2022-07-06T12:04:28;97421.00;;;27.60
56286;BMP180;42191;47.562;9.686;2022-07-06T12:06:55;97425.00;;;27.70
56286;BMP180;42191;47.562;9.686;2022-07-06T12:09:21;97434.00;;;27.70
56286;BMP180;42191;47.562;9.686;2022-07-06T12:11:48;97433.00;;;27.80
56286;BMP180;42191;47.562;9.686;2022-07-06T12:16:40;97425.00;;;27.80
56286;BMP180;42191;47.562;9.686;2022-07-06T12:19:07;97436.00;;;27.80
56286;BMP180;42191;47.562;9.686;2022-07-06T12:21:34;97424.00;;;27.80
56286;BMP180;42191;47.562;9.686;2022-07-06T12:24:00;97424.00;;;27.90
56286;BMP180;42191;47.562;9.686;2022-07-06T12:26:28;97418.00;;;27.90
56286;BMP180;42191;47.562;9.686;2022-07-06T12:29:11;97430.00;;;28.00
56286;BMP180;42191;47.562;9.686;2022-07-06T12:31:43;97427.00;;;28.10
56286;BMP180;42191;47.562;9.686;2022-07-06T12:34:22;97431.00;;;28.20
56286;BMP180;42191;47.562;9.686;2022-07-06T12:36:56;97421.00;;;28.20
56286;BMP180;42191;47.562;9.686;2022-07-06T12:39:25;97423.00;;;28.20
56286;BMP180;42191;47.562;9.686;2022-07-06T12:41:56;97425.00;;;28.30
56286;BMP180;42191;47.562;9.686;2022-07-06T12:44:25;97428.00;;;28.30
56286;BMP180;42191;47.562;9.686;2022-07-06T12:47:06;97421.00;;;28.30
56286;BMP180;42191;47.562;9.686;2022-07-06T12:49:33;97423.00;;;28.40
56286;BMP180;42191;47.562;9.686;2022-07-06T12:52:15;97418.00;;;28.40
56286;BMP180;42191;47.562;9.686;2022-07-06T12:54:51;97431.00;;;28.50
56286;BMP180;42191;47.562;9.686;2022-07-06T12:57:21;97424.00;;;28.50
56286;BMP180;42191;47.562;9.686;2022-07-06T12:59:57;97416.00;;;28.50
56286;BMP180;42191;47.562;9.686;2022-07-06T13:02:34;97423.00;;;28.60
56286;BMP180;42191;47.562;9.686;2022-07-06T13:05:07;97416.00;;;28.60
56286;BMP180;42191;47.562;9.686;2022-07-06T13:07:35;97414.00;;;28.70
56286;BMP180;42191;47.562;9.686;2022-07-06T13:10:03;97408.00;;;29.00
56286;BMP180;42191;47.562;9.686;2022-07-06T13:12:32;97399.00;;;29.40
56286;BMP180;42191;47.562;9.686;2022-07-06T13:15:05;97410.00;;;29.90
56286;BMP180;42191;47.562;9.686;2022-07-06T13:18:09;97402.00;;;30.60
56286;BMP180;42191;47.562;9.686;2022-07-06T13:20:35;97405.00;;;31.20
56286;BMP180;42191;47.562;9.686;2022-07-06T13:23:01;97408.00;;;31.90
56286;BMP180;42191;47.562;9.686;2022-07-06T13:25:27;97402.00;;;32.60
56286;BMP180;42191;47.562;9.686;2022-07-06T13:27:54;97401.00;;;33.30
56286;BMP180;42191;47.562;9.686;2022-07-06T13:30:20;97398.00;;;33.90
56286;BMP180;42191;47.562;9.686;2022-07-06T13:32:46;97397.00;;;34.50
56286;BMP180;42191;47.562;9.686;2022-07-06T13:35:12;97402.00;;;35.10
56286;BMP180;42191;47.562;9.686;2022-07-06T13:37:39;97393.00;;;35.50
56286;BMP180;42191;47.562;9.686;2022-07-06T13:40:05;97389.00;;;35.90
56286;BMP180;42191;47.562;9.686;2022-07-06T13:42:32;97390.00;;;36.30
56286;BMP180;42191;47.562;9.686;2022-07-06T13:44:58;97396.00;;;36.80
56286;BMP180;42191;47.562;9.686;2022-07-06T13:47:24;97396.00;;;37.20
56286;BMP180;42191;47.562;9.686;2022-07-06T13:49:50;97399.00;;;37.60
56286;BMP180;42191;47.562;9.686;2022-07-06T13:52:16;97392.00;;;37.90
56286;BMP180;42191;47.562;9.686;2022-07-06T13:54:42;97383.00;;;38.20
56286;BMP180;42191;47.562;9.686;2022-07-06T13:57:08;97382.00;;;38.60
56286;BMP180;42191;47.562;9.686;2022-07-06T13:59:34;97377.00;;;38.90
56286;BMP180;42191;47.562;9.686;2022-07-06T14:02:00;97380.00;;;39.20
56286;BMP180;42191;47.562;9.686;2022-07-06T14:04:27;97380.00;;;39.40
56286;BMP180;42191;47.562;9.686;2022-07-06T14:06:54;97378.00;;;39.60
56286;BMP180;42191;47.562;9.686;2022-07-06T14:09:20;97373.00;;;39.80
56286;BMP180;42191;47.562;9.686;2022-07-06T14:11:47;97368.00;;;40.00
56286;BMP180;42191;47.562;9.686;2022-07-06T14:14:13;97367.00;;;40.30
56286;BMP180;42191;47.562;9.686;2022-07-06T14:16:39;97366.00;;;40.60
56286;BMP180;42191;47.562;9.686;2022-07-06T14:19:07;97373.00;;;40.90
56286;BMP180;42191;47.562;9.686;2022-07-06T14:21:35;97367.00;;;41.10
56286;BMP180;42191;47.562;9.686;2022-07-06T14:24:01;97369.00;;;41.20
56286;BMP180;42191;47.562;9.686;2022-07-06T14:26:28;97360.00;;;41.40